KOAR/OAR METAR and TAF weather

Enter ICAO airport designator
Station Type Date Time Source
KOAR METAR 2022/01/28 00:15 UTC NOAA

KOAR 280015Z AUTO 28013KT 10SM CLR 13/08 A3018 RMK AO2


Station Type Date Time Source
KOAR Decoded METAR 2022/01/28 00:15 UTC NOAA

Station name not available
Jan 27, 2022 - 07:15 PM EST / 2022.01.28 0015 UTC
Wind: from the W (280 degrees) at 15 MPH (13 KT):0
Visibility: 10 mile(s):0
Sky conditions: clear
Temperature: 55 F (13 C)
Dew Point: 46 F (8 C)
Relative Humidity: 71%
Pressure (altimeter): 30.18 in. Hg (1022 hPa)
ob: KOAR 280015Z AUTO 28013KT 10SM CLR 13/08 A3018 RMK AO2
cycle: 0

Station Type Date Time Source
KOAR TAF UTC NOAA

Error!

Example: see airport list